Messwerte Bakersfield

Temperatur

Temperatur
°C
1574218800 19.00 19.00 18
1574222400 20.00 20.00 16
1574226000 21.00 21.00 14
1574229600 22.00 22.00 13
1574233200 23.00 23.00 13
1574236800 0.00 0.00 13
1574240400 1.00 1.00 13
1574244000 2.00 2.00 12
1574247600 3.00 3.00 12
1574251200 4.00 4.00 12
1574254800 5.00 5.00 11
1574258400 6.00 6.00 11
1574262000 7.00 7.00 11
1574265600 8.00 8.00 11
1574269200 9.00 9.00 11
1574272800 10.00 10.00
1574276400 11.00 11.00 10
1574280000 12.00 12.00 9
1574283600 13.00 13.00
1574287200 14.00 14.00 9
1574290800 15.00 15.00 10
1574294400 16.00 16.00 11
1574298000 17.00 17.00 11
1574301600 18.00 18.00 11

Aktuellste Messwerte

Wettercharakter
Wetter: Wolkenfelder, kaum Regen
Temperatur
11 °C
Feuchtigkeit
75 %
Wind
15 km/hWindrichtung: Ost
Luftdruck
1003 hPa
Messzeit: 20. November 2019, 19.00Datenquelle: METAR

Weitere Messstationen in der Nähe

Messstation Temperatur Entfernung
Porterville 10 °C 67 km
Sandberg 3 °C 81 km
Mojave 8 °C 91 km
Palmdale, Burbank 12 °C 92 km
Lancaster 8 °C 108 km
Hanford 11 °C 112 km
Edwards - 119 km

Wind

Windrichtung Böen Mittelwind
° km/h km/h
1574218800 19.00 18.00 - 19.00 340° 5
1574222400 20.00 19.00 - 20.00 300° 15
1574226000 21.00 20.00 - 21.00 310° 10
1574229600 22.00 21.00 - 22.00 300° 10
1574233200 23.00 22.00 - 23.00 320° 20
1574236800 0.00 23.00 - 0.00 360° 10
1574240400 1.00 0.00 - 1.00 360° 15
1574244000 2.00 1.00 - 2.00 360° 20
1574247600 3.00 2.00 - 3.00 360° 15
1574251200 4.00 3.00 - 4.00 340° 5
1574254800 5.00 4.00 - 5.00 320° 15
1574258400 6.00 5.00 - 6.00 320° 10
1574262000 7.00 6.00 - 7.00 300° 5
1574265600 8.00 7.00 - 8.00 100° 5
1574269200 9.00 8.00 - 9.00 100° 0
1574272800 10.00 9.00 - 10.00
1574276400 11.00 10.00 - 11.00 150° 15
1574280000 12.00 11.00 - 12.00 110° 15
1574283600 13.00 12.00 - 13.00
1574287200 14.00 13.00 - 14.00 110° 15
1574290800 15.00 14.00 - 15.00 120° 20
1574294400 16.00 15.00 - 16.00 140° 15
1574298000 17.00 16.00 - 17.00 100° 15
1574301600 18.00 17.00 - 18.00 110° 10

Ihre Wetterstation

Fehlt Ihre Wetterstation auf unserem Portal?

Schreiben Sie an network@meteonews.ch

Klima

Wann ist es am wärmsten? Wann regnet es am wenigsten? Unsere Klimadaten geben Auskunft.